Time;durP1;ratioP1;P1;durP2;ratioP2;P2;SDS_P1;SDS_P2;PMS_P1;PMS_P2;Temp;Humidity;BMP_temperature;BMP_pressure;BME280_temperature;BME280_humidity;BME280_pressure;Samples;Min_cycle;Max_cycle;Signal;HPM_P1;HPM_P2
2022/09/13 00:00:38;;;;;;;6.10;3.40;;;18.00;99.90;;;;;;5033328;28;20170;-49
2022/09/13 00:03:04;;;;;;;3.30;3.00;;;18.00;99.90;;;;;;5034322;28;20175;-51
2022/09/13 00:05:30;;;;;;;9.10;3.50;;;17.80;99.90;;;;;;5034101;28;20175;-51
2022/09/13 00:07:56;;;;;;;3.80;2.88;;;17.80;99.90;;;;;;5034231;28;20530;-51
2022/09/13 00:10:22;;;;;;;3.97;2.90;;;17.80;99.90;;;;;;5033077;28;20239;-50
2022/09/13 00:12:48;;;;;;;5.15;3.00;;;17.80;99.90;;;;;;5033976;28;20247;-51
2022/09/13 00:15:13;;;;;;;8.82;3.33;;;17.80;99.90;;;;;;5033942;28;20183;-51
2022/09/13 00:17:39;;;;;;;5.85;3.20;;;17.90;99.90;;;;;;5034505;28;20670;-51
2022/09/13 00:20:05;;;;;;;4.63;3.63;;;17.80;99.90;;;;;;5034342;28;20171;-51
2022/09/13 00:22:31;;;;;;;10.57;3.38;;;17.90;99.90;;;;;;5033731;28;20249;-51
2022/09/13 00:24:57;;;;;;;5.63;3.28;;;17.80;99.90;;;;;;5033816;28;20202;-50
2022/09/13 00:27:23;;;;;;;3.05;2.50;;;17.90;99.90;;;;;;5032921;28;20225;-50
2022/09/13 00:29:48;;;;;;;5.30;3.45;;;17.80;99.90;;;;;;5033944;28;20663;-50
2022/09/13 00:32:14;;;;;;;4.15;2.63;;;17.90;99.90;;;;;;5033940;28;20250;-48
2022/09/13 00:34:39;;;;;;;6.30;3.38;;;17.80;99.90;;;;;;5034417;28;20175;-49
2022/09/13 00:37:05;;;;;;;4.65;3.30;;;17.80;99.90;;;;;;5033696;28;20199;-48
2022/09/13 00:39:31;;;;;;;7.95;4.32;;;17.80;99.90;;;;;;5033767;28;20172;-47
2022/09/13 00:41:57;;;;;;;7.57;3.67;;;17.80;99.90;;;;;;5033241;28;20182;-48
2022/09/13 00:44:58;;;;;;;3.75;3.08;;;17.90;99.90;;;;;;5033542;28;20171;-48
2022/09/13 00:47:26;;;;;;;5.18;3.17;;;17.90;99.90;;;;;;5033694;28;20233;-47
2022/09/13 00:49:58;;;;;;;5.63;3.22;;;17.90;99.90;;;;;;5032346;28;20198;-48
2022/09/13 00:52:28;;;;;;;6.95;4.63;;;17.80;99.90;;;;;;5033600;28;20197;-47
2022/09/13 00:55:10;;;;;;;6.55;5.00;;;17.90;99.90;;;;;;5033266;28;20170;-47
2022/09/13 00:57:36;;;;;;;6.70;3.90;;;17.80;99.90;;;;;;5033328;28;20705;-49
2022/09/13 01:00:10;;;;;;;8.55;4.90;;;17.80;99.90;;;;;;5033272;28;20171;-49
2022/09/13 01:02:38;;;;;;;6.93;6.22;;;17.80;99.90;;;;;;5033544;28;20550;-48
2022/09/13 01:05:05;;;;;;;3.50;3.20;;;17.70;99.90;;;;;;5033304;28;20178;-47
2022/09/13 01:07:31;;;;;;;6.25;3.42;;;17.80;99.90;;;;;;5033499;28;20172;-50
2022/09/13 01:09:57;;;;;;;4.85;3.70;;;17.70;99.90;;;;;;5033243;28;20167;-47
2022/09/13 01:12:52;;;;;;;6.78;3.67;;;17.60;99.90;;;;;;5032573;28;20696;-50
2022/09/13 01:15:18;;;;;;;5.13;3.08;;;17.70;99.90;;;;;;5033028;28;20186;-49
2022/09/13 01:17:44;;;;;;;4.97;3.15;;;17.70;99.90;;;;;;5032932;28;20167;-48
2022/09/13 01:20:11;;;;;;;4.38;3.00;;;17.70;99.90;;;;;;5033529;28;20168;-50
2022/09/13 01:23:01;;;;;;;7.72;3.13;;;17.70;99.90;;;;;;5032442;28;20631;-47
2022/09/13 01:26:05;;;;;;;3.47;2.88;;;17.70;99.90;;;;;;5032462;28;20534;-50
2022/09/13 01:28:49;;;;;;;4.13;2.78;;;17.70;99.90;;;;;;5030637;28;20182;-49
2022/09/13 01:31:39;;;;;;;3.28;2.70;;;17.70;99.90;;;;;;5032746;28;20167;-50
2022/09/13 01:34:26;;;;;;;4.13;2.53;;;17.70;99.90;;;;;;5032583;28;20167;-49
2022/09/13 01:37:07;;;;;;;7.07;2.92;;;17.60;99.90;;;;;;5032192;28;20198;-50
2022/09/13 01:39:54;;;;;;;3.38;2.90;;;17.60;99.90;;;;;;5032548;28;20163;-51
2022/09/13 01:42:54;;;;;;;5.68;2.55;;;17.50;99.90;;;;;;5032771;28;20185;-48
2022/09/13 01:45:30;;;;;;;2.80;2.60;;;17.60;99.90;;;;;;5032476;28;20167;-48
2022/09/13 01:48:05;;;;;;;3.92;2.95;;;17.60;99.90;;;;;;5032467;28;20233;-47
2022/09/13 01:50:51;;;;;;;3.50;2.92;;;17.60;99.90;;;;;;5032522;28;20544;-47
2022/09/13 01:53:48;;;;;;;3.08;2.78;;;17.60;99.90;;;;;;5031787;28;20171;-48
2022/09/13 01:56:23;;;;;;;2.92;2.40;;;17.60;99.90;;;;;;5031903;28;20223;-49
2022/09/13 01:58:58;;;;;;;4.60;2.88;;;17.60;99.90;;;;;;5032357;28;20173;-47
2022/09/13 02:01:38;;;;;;;3.45;2.63;;;17.70;99.90;;;;;;5032180;28;20700;-47
2022/09/13 02:04:12;;;;;;;2.95;2.65;;;17.60;99.90;;;;;;5030943;28;20186;-49
2022/09/13 02:06:45;;;;;;;4.22;2.70;;;17.60;99.90;;;;;;5032768;28;20217;-47
2022/09/13 02:09:19;;;;;;;3.83;2.55;;;17.60;99.90;;;;;;5032759;28;20523;-48
2022/09/13 02:11:49;;;;;;;4.15;2.80;;;17.60;99.90;;;;;;5032091;28;20217;-47
2022/09/13 02:14:20;;;;;;;4.40;2.50;;;17.60;99.90;;;;;;5030821;28;20186;-48
2022/09/13 02:16:51;;;;;;;4.90;3.05;;;17.60;99.90;;;;;;5031834;28;20227;-48
2022/09/13 02:19:32;;;;;;;6.25;2.80;;;17.60;99.90;;;;;;5031913;28;20270;-50
2022/09/13 02:21:59;;;;;;;4.57;2.42;;;17.60;99.90;;;;;;5032198;28;20197;-49
2022/09/13 02:24:39;;;;;;;2.88;2.50;;;17.60;99.90;;;;;;5031247;28;20203;-49
2022/09/13 02:27:10;;;;;;;3.85;2.65;;;17.60;99.90;;;;;;5032155;28;20179;-50
2022/09/13 02:29:39;;;;;;;4.50;2.78;;;17.60;99.90;;;;;;5032165;28;20172;-50
2022/09/13 02:32:12;;;;;;;2.95;2.60;;;17.60;99.90;;;;;;5031810;28;20234;-49
2022/09/13 02:34:41;;;;;;;5.45;2.70;;;17.70;99.90;;;;;;5032169;28;20213;-50
2022/09/13 02:37:09;;;;;;;3.22;2.92;;;17.60;99.90;;;;;;5032012;28;20210;-49
2022/09/13 02:39:40;;;;;;;4.78;2.85;;;17.60;99.90;;;;;;5031796;28;20172;-49
2022/09/13 02:42:14;;;;;;;4.30;3.10;;;17.60;99.90;;;;;;5031735;28;20163;-50
2022/09/13 02:44:52;;;;;;;5.28;3.05;;;17.60;99.90;;;;;;5032029;28;20158;-51
2022/09/13 02:47:39;;;;;;;5.53;3.08;;;17.60;99.90;;;;;;5030452;28;20206;-50
2022/09/13 02:50:30;;;;;;;5.13;2.90;;;17.60;99.90;;;;;;5030860;28;20191;-50
2022/09/13 02:53:21;;;;;;;5.38;3.13;;;17.80;99.90;;;;;;5031459;28;20163;-50
2022/09/13 02:56:20;;;;;;;9.13;3.28;;;17.60;99.90;;;;;;5031379;28;20198;-50
2022/09/13 02:59:00;;;;;;;5.93;3.50;;;17.60;99.90;;;;;;5031522;28;20674;-50
2022/09/13 03:01:26;;;;;;;5.40;2.92;;;17.70;99.90;;;;;;5031514;28;20159;-49
2022/09/13 03:03:53;;;;;;;8.15;3.00;;;17.70;99.90;;;;;;5031542;28;20259;-51
2022/09/13 03:06:28;;;;;;;6.03;2.95;;;17.70;99.90;;;;;;5031614;28;20167;-49
2022/09/13 03:08:57;;;;;;;7.60;3.13;;;17.70;99.90;;;;;;5031292;28;20662;-49
2022/09/13 03:11:35;;;;;;;5.07;2.80;;;17.70;99.90;;;;;;5031529;28;20167;-51
2022/09/13 03:14:39;;;;;;;10.13;3.60;;;17.70;99.90;;;;;;5031310;28;20179;-51
2022/09/13 03:17:10;;;;;;;5.88;2.95;;;17.70;99.90;;;;;;5030971;28;20268;-51
2022/09/13 03:19:55;;;;;;;9.95;3.30;;;17.70;99.90;;;;;;5031392;28;20156;-49
2022/09/13 03:22:44;;;;;;;5.72;3.63;;;17.70;99.90;;;;;;5031434;28;20794;-50
2022/09/13 03:25:34;;;;;;;6.32;3.75;;;17.70;99.90;;;;;;5031801;28;20167;-49
2022/09/13 03:28:11;;;;;;;5.72;3.58;;;17.70;99.90;;;;;;5031576;28;20550;-51
2022/09/13 03:30:43;;;;;;;5.85;3.15;;;17.70;99.90;;;;;;5031678;28;20220;-51
2022/09/13 03:33:17;;;;;;;4.07;3.10;;;17.80;99.90;;;;;;5031683;28;20674;-50
2022/09/13 03:35:52;;;;;;;7.75;3.33;;;17.80;99.90;;;;;;5033932;28;20191;-48
2022/09/13 03:38:54;;;;;;;8.55;3.33;;;17.80;99.90;;;;;;5034886;28;20228;-48
2022/09/13 03:41:25;;;;;;;3.67;3.38;;;17.80;99.90;;;;;;5034882;28;20213;-48
2022/09/13 03:43:55;;;;;;;6.35;3.60;;;17.80;99.90;;;;;;5034855;28;20179;-48
2022/09/13 03:46:33;;;;;;;9.38;3.53;;;17.70;99.90;;;;;;5034995;28;20184;-48
2022/09/13 03:49:04;;;;;;;5.20;3.10;;;17.70;99.90;;;;;;5034807;28;20162;-49
2022/09/13 03:51:31;;;;;;;6.40;3.33;;;17.60;99.90;;;;;;5034902;28;20210;-49
2022/09/13 03:54:02;;;;;;;6.93;3.22;;;17.70;99.90;;;;;;5034657;28;20159;-48
2022/09/13 03:56:27;;;;;;;5.85;3.70;;;17.70;99.90;;;;;;5034477;28;20215;-50
2022/09/13 03:58:53;;;;;;;4.95;3.10;;;17.70;99.90;;;;;;5034480;28;20171;-50
2022/09/13 04:01:21;;;;;;;3.67;3.00;;;17.70;99.90;;;;;;5034254;28;20171;-51
2022/09/13 04:03:47;;;;;;;8.48;3.25;;;17.70;99.90;;;;;;5034530;28;20167;-51
2022/09/13 04:06:12;;;;;;;6.28;3.08;;;17.70;99.90;;;;;;5034466;28;20171;-50
2022/09/13 04:08:38;;;;;;;5.50;2.70;;;17.80;99.90;;;;;;5034690;28;20533;-50
2022/09/13 04:11:04;;;;;;;6.05;2.60;;;17.70;99.90;;;;;;5034441;28;20211;-50
2022/09/13 04:13:30;;;;;;;3.05;2.65;;;17.70;99.90;;;;;;5034421;28;20220;-50
2022/09/13 04:16:01;;;;;;;3.00;2.70;;;17.60;99.90;;;;;;5034002;28;20291;-51
2022/09/13 04:18:27;;;;;;;6.25;2.90;;;17.70;99.90;;;;;;5033877;28;20175;-50
2022/09/13 04:20:57;;;;;;;3.30;2.58;;;17.70;99.90;;;;;;5034377;28;20171;-52
2022/09/13 04:23:24;;;;;;;6.38;2.97;;;17.70;99.90;;;;;;5034087;28;20167;-51
2022/09/13 04:25:50;;;;;;;3.65;3.20;;;17.70;99.90;;;;;;5034008;28;20172;-50
2022/09/13 04:28:17;;;;;;;6.68;3.13;;;17.70;99.90;;;;;;5033946;28;20160;-51
2022/09/13 04:30:44;;;;;;;4.97;3.00;;;17.70;99.90;;;;;;5033976;28;20573;-49
2022/09/13 04:33:09;;;;;;;2.88;2.60;;;17.70;99.90;;;;;;5034233;28;20175;-51
2022/09/13 04:35:35;;;;;;;5.78;3.05;;;17.70;99.90;;;;;;5033773;28;20313;-50
2022/09/13 04:38:00;;;;;;;6.57;3.20;;;17.60;99.90;;;;;;5033903;28;20175;-52
2022/09/13 04:40:26;;;;;;;7.22;3.58;;;17.60;99.90;;;;;;5033987;28;20171;-51
2022/09/13 04:42:51;;;;;;;4.55;2.90;;;17.60;99.90;;;;;;5033471;28;20167;-51
2022/09/13 04:45:17;;;;;;;6.05;2.80;;;17.60;99.90;;;;;;5033372;28;20635;-51
2022/09/13 04:47:43;;;;;;;3.53;2.42;;;17.50;99.90;;;;;;5032373;28;20249;-49
2022/09/13 04:50:09;;;;;;;4.75;3.28;;;17.60;99.90;;;;;;5033851;28;20190;-51
2022/09/13 04:52:34;;;;;;;3.65;2.55;;;17.50;99.90;;;;;;5033526;28;20187;-51
2022/09/13 04:55:00;;;;;;;5.00;3.72;;;17.60;99.90;;;;;;5033484;28;20399;-50
2022/09/13 04:57:29;;;;;;;6.50;3.20;;;17.60;99.90;;;;;;5033332;28;20207;-51
2022/09/13 04:59:55;;;;;;;3.33;3.03;;;17.60;99.90;;;;;;5033389;28;20514;-51
2022/09/13 05:02:20;;;;;;;3.78;3.22;;;17.60;99.90;;;;;;5033225;28;20186;-51
2022/09/13 05:04:46;;;;;;;5.47;3.28;;;17.60;99.90;;;;;;5033171;28;20166;-49
2022/09/13 05:07:11;;;;;;;7.93;2.97;;;17.60;99.90;;;;;;5031778;28;20218;-51
2022/09/13 05:09:37;;;;;;;3.92;3.38;;;17.60;99.90;;;;;;5031952;28;20178;-51
2022/09/13 05:12:03;;;;;;;8.85;3.28;;;17.60;99.90;;;;;;5032890;28;20242;-51
2022/09/13 05:14:29;;;;;;;4.32;3.35;;;17.60;99.90;;;;;;5033189;28;20574;-51
2022/09/13 05:16:54;;;;;;;5.63;3.88;;;17.70;99.90;;;;;;5032656;28;20218;-51
2022/09/13 05:19:20;;;;;;;3.13;2.83;;;17.70;99.90;;;;;;5033023;28;20213;-51
2022/09/13 05:21:45;;;;;;;6.53;3.67;;;17.60;99.90;;;;;;5032882;28;20179;-51
2022/09/13 05:24:11;;;;;;;6.28;3.45;;;17.60;99.90;;;;;;5032932;28;20167;-51
2022/09/13 05:26:37;;;;;;;6.97;3.47;;;17.70;99.90;;;;;;5033155;28;20237;-52
2022/09/13 05:29:03;;;;;;;7.55;3.30;;;17.70;99.90;;;;;;5032785;28;20170;-52
2022/09/13 05:31:35;;;;;;;5.28;3.22;;;17.70;99.90;;;;;;5032713;28;20167;-51
2022/09/13 05:34:04;;;;;;;7.15;4.03;;;17.70;99.90;;;;;;5032943;28;20306;-50
2022/09/13 05:36:29;;;;;;;11.30;4.05;;;17.70;99.90;;;;;;5032560;28;20202;-48
2022/09/13 05:38:56;;;;;;;8.85;3.78;;;17.70;99.90;;;;;;5032527;28;20236;-48
2022/09/13 05:41:22;;;;;;;12.00;3.47;;;17.70;99.90;;;;;;5032436;28;20183;-50
2022/09/13 05:43:48;;;;;;;8.40;4.05;;;17.70;99.90;;;;;;5032156;28;20254;-49
2022/09/13 05:46:16;;;;;;;9.30;3.88;;;17.80;99.90;;;;;;5032513;28;20260;-48
2022/09/13 05:48:42;;;;;;;6.53;4.20;;;17.90;99.90;;;;;;5032470;28;20163;-48
2022/09/13 05:51:27;;;;;;;9.82;3.63;;;17.90;99.90;;;;;;5032796;28;20258;-49
2022/09/13 05:53:53;;;;;;;7.15;3.35;;;17.90;99.90;;;;;;5032646;28;20172;-50
2022/09/13 05:56:21;;;;;;;4.55;3.75;;;17.90;99.90;;;;;;5032498;28;20214;-49
2022/09/13 05:58:48;;;;;;;6.88;3.78;;;18.00;99.90;;;;;;5031403;28;20182;-48
2022/09/13 06:01:17;;;;;;;8.07;3.80;;;18.00;99.90;;;;;;5032287;28;20225;-48
2022/09/13 06:03:43;;;;;;;9.68;4.22;;;18.00;99.90;;;;;;5032112;28;20538;-48
2022/09/13 06:06:09;;;;;;;5.85;4.05;;;18.00;99.90;;;;;;5032588;28;20171;-48
2022/09/13 06:08:35;;;;;;;8.35;3.95;;;18.00;99.90;;;;;;5032347;28;20677;-49
2022/09/13 06:11:02;;;;;;;6.18;3.53;;;18.10;99.90;;;;;;5032134;28;20171;-48
2022/09/13 06:13:28;;;;;;;6.65;4.00;;;18.20;99.90;;;;;;5032248;28;20172;-49
2022/09/13 06:15:55;;;;;;;6.18;3.90;;;18.20;99.90;;;;;;5031795;28;20230;-48
2022/09/13 06:18:22;;;;;;;5.70;3.92;;;18.20;99.90;;;;;;5031972;28;20178;-49
2022/09/13 06:20:50;;;;;;;7.30;3.70;;;18.20;99.90;;;;;;5031945;28;20163;-49
2022/09/13 06:23:16;;;;;;;5.88;4.20;;;18.30;99.90;;;;;;5031924;28;20167;-48
2022/09/13 06:25:42;;;;;;;5.43;3.60;;;18.30;99.90;;;;;;5031940;28;20221;-49
2022/09/13 06:28:08;;;;;;;7.97;3.70;;;18.40;99.90;;;;;;5032178;28;20164;-48
2022/09/13 06:30:34;;;;;;;6.47;3.50;;;18.40;99.90;;;;;;5031743;28;20175;-47
2022/09/13 06:33:00;;;;;;;8.80;3.42;;;18.50;99.90;;;;;;5031857;28;20250;-48
2022/09/13 06:35:25;;;;;;;7.55;3.97;;;18.40;99.90;;;;;;5031665;28;20250;-48
2022/09/13 06:37:56;;;;;;;10.55;3.88;;;18.50;99.90;;;;;;5031800;28;20180;-50
2022/09/13 06:40:21;;;;;;;6.85;3.42;;;18.60;99.90;;;;;;5032057;28;20171;-51
2022/09/13 06:42:47;;;;;;;7.05;2.95;;;18.60;99.90;;;;;;5031910;28;20182;-49
2022/09/13 06:45:13;;;;;;;5.90;3.35;;;18.60;99.90;;;;;;5031814;28;20619;-50
2022/09/13 06:47:38;;;;;;;7.07;3.65;;;18.50;99.90;;;;;;5032113;28;20170;-50
2022/09/13 06:50:05;;;;;;;7.72;3.72;;;18.70;99.90;;;;;;5031883;28;20630;-50
2022/09/13 06:52:31;;;;;;;4.38;3.10;;;18.70;99.90;;;;;;5031844;28;20175;-51
2022/09/13 06:54:57;;;;;;;7.40;3.20;;;18.70;99.90;;;;;;5031604;28;20532;-51
2022/09/13 06:57:22;;;;;;;7.20;3.20;;;18.80;99.90;;;;;;5031558;28;20199;-51
2022/09/13 06:59:48;;;;;;;5.85;3.63;;;18.80;99.90;;;;;;5031566;28;20174;-51
2022/09/13 07:02:14;;;;;;;6.82;3.85;;;18.80;99.90;;;;;;5031541;28;20175;-50
2022/09/13 07:04:40;;;;;;;7.22;3.70;;;19.00;99.90;;;;;;5031823;28;20172;-47
2022/09/13 07:07:05;;;;;;;8.27;3.92;;;19.00;99.90;;;;;;5032018;28;20187;-51
2022/09/13 07:09:33;;;;;;;7.43;3.40;;;19.10;99.90;;;;;;5032359;28;20525;-50
2022/09/13 07:11:59;;;;;;;7.63;3.40;;;19.20;99.90;;;;;;5034117;28;20695;-51
2022/09/13 07:14:27;;;;;;;7.55;3.10;;;19.20;99.90;;;;;;5035338;28;20218;-51
2022/09/13 07:16:53;;;;;;;4.45;3.17;;;19.20;99.90;;;;;;5035150;28;20226;-49
2022/09/13 07:19:26;;;;;;;10.50;3.70;;;19.40;99.90;;;;;;5035317;28;20164;-50
2022/09/13 07:21:53;;;;;;;4.50;3.28;;;19.50;99.90;;;;;;5035291;28;20168;-51
2022/09/13 07:24:19;;;;;;;5.20;3.10;;;19.50;99.90;;;;;;5035222;28;20175;-50
2022/09/13 07:26:46;;;;;;;3.85;2.88;;;19.60;99.90;;;;;;5035189;28;20635;-51
2022/09/13 07:29:15;;;;;;;5.00;3.20;;;19.70;99.90;;;;;;5035077;28;20171;-48
2022/09/13 07:31:43;;;;;;;4.30;2.80;;;19.80;99.90;;;;;;5034991;28;20576;-47
2022/09/13 07:34:14;;;;;;;6.82;2.72;;;19.90;99.90;;;;;;5035382;28;20262;-50
2022/09/13 07:36:40;;;;;;;3.45;2.85;;;20.00;99.90;;;;;;5034853;28;20690;-48
2022/09/13 07:39:07;;;;;;;7.20;3.05;;;20.00;99.90;;;;;;5035297;28;20164;-50
2022/09/13 07:41:33;;;;;;;4.43;2.40;;;20.00;99.90;;;;;;5034880;28;20164;-50
2022/09/13 07:44:00;;;;;;;3.42;2.42;;;20.10;99.90;;;;;;5034915;28;20167;-50
2022/09/13 07:46:28;;;;;;;4.60;2.92;;;20.20;99.90;;;;;;5035041;28;20225;-50
2022/09/13 07:48:55;;;;;;;4.03;3.15;;;20.20;99.90;;;;;;5034975;28;20179;-50
2022/09/13 07:51:30;;;;;;;9.00;3.03;;;20.30;99.90;;;;;;5034687;28;20629;-53
2022/09/13 07:53:57;;;;;;;5.38;2.78;;;20.40;99.90;;;;;;5033493;28;20177;-51
2022/09/13 07:56:26;;;;;;;5.35;3.75;;;20.40;99.90;;;;;;5034724;28;20325;-50
2022/09/13 07:58:53;;;;;;;7.28;3.40;;;20.60;99.90;;;;;;5034507;28;20186;-50
2022/09/13 08:01:25;;;;;;;5.43;3.60;;;20.70;99.90;;;;;;5034496;28;20175;-50
2022/09/13 08:03:53;;;;;;;8.55;3.00;;;20.70;99.90;;;;;;5034534;28;20661;-50
2022/09/13 08:06:18;;;;;;;7.13;2.70;;;20.90;99.90;;;;;;5034393;28;20215;-50
2022/09/13 08:08:44;;;;;;;8.75;2.95;;;21.00;99.90;;;;;;5034348;28;20252;-50
2022/09/13 08:11:18;;;;;;;8.18;2.83;;;21.00;99.90;;;;;;5034342;28;20640;-49
2022/09/13 08:13:44;;;;;;;14.88;3.03;;;21.10;99.90;;;;;;5033112;28;20686;-50
2022/09/13 08:16:10;;;;;;;7.50;2.95;;;21.20;99.90;;;;;;5033928;28;20701;-50
2022/09/13 08:18:36;;;;;;;7.57;2.88;;;21.30;99.90;;;;;;5034464;28;20242;-50
2022/09/13 08:21:01;;;;;;;7.88;2.70;;;21.30;99.90;;;;;;5033359;28;20213;-50
2022/09/13 08:23:27;;;;;;;14.82;2.78;;;21.30;99.90;;;;;;5034399;28;20498;-49
2022/09/13 08:25:53;;;;;;;6.82;2.10;;;21.40;99.90;;;;;;5034031;28;20175;-50
2022/09/13 08:28:20;;;;;;;10.80;2.05;;;21.50;99.90;;;;;;5033994;28;20214;-50
2022/09/13 08:30:47;;;;;;;6.90;1.95;;;21.70;99.90;;;;;;5034287;28;20203;-50
2022/09/13 08:33:12;;;;;;;7.82;2.00;;;21.80;99.90;;;;;;5033824;28;20254;-50
2022/09/13 08:35:38;;;;;;;8.25;2.22;;;21.80;99.90;;;;;;5034167;28;20171;-50
2022/09/13 08:38:05;;;;;;;1.92;1.73;;;21.70;99.90;;;;;;5034401;28;20183;-47
2022/09/13 08:40:38;;;;;;;4.40;2.00;;;21.70;99.90;;;;;;5033842;28;20175;-50
2022/09/13 08:43:41;;;;;;;7.53;3.10;;;21.90;99.90;;;;;;5033645;28;20171;-50
2022/09/13 08:46:25;;;;;;;3.95;2.22;;;22.00;99.90;;;;;;5034037;28;20631;-50
2022/09/13 08:48:57;;;;;;;3.35;2.05;;;22.10;99.90;;;;;;5033643;28;20519;-50
2022/09/13 08:51:28;;;;;;;4.00;2.40;;;22.00;99.90;;;;;;5032680;28;20560;-50
2022/09/13 08:53:56;;;;;;;3.10;2.00;;;22.00;99.90;;;;;;5033592;28;20199;-49
2022/09/13 08:56:30;;;;;;;3.70;2.28;;;22.10;99.90;;;;;;5033641;28;20285;-48
2022/09/13 08:59:07;;;;;;;4.03;2.10;;;22.20;99.90;;;;;;5033382;28;20171;-48
2022/09/13 09:02:22;;;;;;;4.00;2.33;;;22.10;99.90;;;;;;5033561;28;20261;-49
2022/09/13 09:04:59;;;;;;;4.35;1.90;;;22.30;99.90;;;;;;5016573;28;20222;-48
2022/09/13 09:07:30;;;;;;;5.50;2.20;;;22.30;99.90;;;;;;5033249;28;20623;-47
2022/09/13 09:10:01;;;;;;;4.80;2.13;;;22.30;99.90;;;;;;5033154;28;20221;-47
2022/09/13 09:12:44;;;;;;;5.28;2.28;;;22.40;99.90;;;;;;5033383;28;20194;-49
2022/09/13 09:15:21;;;;;;;3.00;2.38;;;22.40;99.90;;;;;;5033106;28;20167;-47
2022/09/13 09:18:13;;;;;;;6.63;2.88;;;22.60;99.90;;;;;;5032920;28;20202;-49
2022/09/13 09:20:45;;;;;;;6.35;2.42;;;22.80;99.90;;;;;;5033416;28;20170;-48
2022/09/13 09:23:19;;;;;;;4.88;2.53;;;22.90;99.90;;;;;;5032847;28;20587;-48
2022/09/13 09:25:46;;;;;;;4.43;2.60;;;23.20;99.90;;;;;;5033287;28;20540;-49
2022/09/13 09:28:16;;;;;;;4.28;2.30;;;23.40;99.90;;;;;;5032961;28;20167;-48
2022/09/13 09:30:59;;;;;;;4.32;2.63;;;23.40;99.90;;;;;;5032922;28;20635;-47
2022/09/13 09:33:43;;;;;;;5.25;2.42;;;23.40;99.90;;;;;;5032549;28;20183;-49
2022/09/13 09:36:17;;;;;;;4.75;2.42;;;23.30;99.90;;;;;;5033236;28;20215;-48
2022/09/13 09:38:43;;;;;;;5.65;2.60;;;23.20;99.90;;;;;;5032706;28;20171;-48
2022/09/13 09:41:25;;;;;;;10.88;2.53;;;23.50;99.90;;;;;;5033248;28;20182;-47
2022/09/13 09:44:06;;;;;;;4.93;2.63;;;23.80;99.90;;;;;;5032567;28;20170;-48
2022/09/13 09:46:37;;;;;;;4.25;2.60;;;23.90;99.90;;;;;;5032503;28;20277;-48
2022/09/13 09:52:09;;;;;;;5.93;2.47;;;24.10;99.90;;;;;;5032830;28;20536;-50
2022/09/13 09:54:37;;;;;;;8.32;2.65;;;24.10;99.90;;;;;;5032789;28;20212;-47
2022/09/13 09:57:03;;;;;;;8.82;2.95;;;23.90;99.90;;;;;;5032515;28;20290;-48
2022/09/13 09:59:32;;;;;;;5.45;2.63;;;24.20;99.90;;;;;;5032618;28;20171;-49
2022/09/13 10:02:17;;;;;;;10.02;3.33;;;24.30;99.90;;;;;;5032541;28;20174;-49
2022/09/13 10:04:54;;;;;;;5.72;2.40;;;24.80;99.90;;;;;;5032138;28;20707;-49
2022/09/13 10:07:33;;;;;;;4.88;2.50;;;25.10;99.90;;;;;;5032517;28;20253;-50
2022/09/13 10:10:19;;;;;;;10.95;2.88;;;25.00;99.90;;;;;;5031969;28;20634;-47
2022/09/13 10:12:50;;;;;;;8.18;2.95;;;24.80;99.90;;;;;;5032050;28;20626;-48
2022/09/13 10:15:19;;;;;;;4.97;2.25;;;24.90;99.90;;;;;;5032206;28;20657;-48
2022/09/13 10:18:02;;;;;;;6.18;2.47;;;25.10;99.90;;;;;;5032281;28;20217;-48
2022/09/13 10:20:30;;;;;;;6.68;2.70;;;25.00;99.90;;;;;;5032269;28;20167;-50
2022/09/13 10:23:13;;;;;;;3.38;1.98;;;25.20;99.90;;;;;;5032241;28;20178;-47
2022/09/13 10:25:40;;;;;;;4.05;2.15;;;25.30;99.90;;;;;;5032040;28;20174;-47
2022/09/13 10:28:15;;;;;;;3.05;2.20;;;25.00;99.90;;;;;;5032295;28;20163;-50
2022/09/13 10:30:47;;;;;;;4.00;2.40;;;24.80;99.90;;;;;;5032119;28;20166;-50
2022/09/13 10:33:36;;;;;;;2.67;1.98;;;24.60;99.90;;;;;;5031858;28;20174;-48
2022/09/13 10:36:11;;;;;;;3.63;2.35;;;24.70;99.90;;;;;;5031782;28;20186;-49
2022/09/13 10:38:39;;;;;;;2.60;2.00;;;24.60;99.90;;;;;;5032345;28;20185;-49
2022/09/13 10:41:19;;;;;;;2.10;1.80;;;24.50;99.90;;;;;;5032042;28;20166;-49
2022/09/13 10:43:45;;;;;;;2.53;2.05;;;24.40;99.90;;;;;;5032671;28;20246;-48
2022/09/13 10:46:13;;;;;;;2.47;1.98;;;24.50;99.90;;;;;;5038196;28;20162;-49
2022/09/13 10:48:55;;;;;;;3.53;2.13;;;24.40;99.90;;;;;;5038329;28;20175;-47
2022/09/13 10:51:20;;;;;;;4.70;2.25;;;24.30;99.90;;;;;;5038584;28;20196;-50
2022/09/13 10:53:46;;;;;;;6.72;2.47;;;24.20;99.90;;;;;;5038202;28;20682;-50
2022/09/13 10:56:25;;;;;;;3.15;1.90;;;24.30;99.90;;;;;;5038145;28;20210;-51
2022/09/13 10:58:52;;;;;;;5.30;3.47;;;24.50;99.90;;;;;;5038075;28;20170;-50
2022/09/13 11:01:38;;;;;;;3.58;2.00;;;24.50;99.90;;;;;;5038267;28;20177;-50
2022/09/13 11:04:48;;;;;;;8.55;2.10;;;24.70;99.90;;;;;;5038468;28;20246;-51
2022/09/13 11:07:30;;;;;;;4.65;2.10;;;24.80;99.90;;;;;;5038110;28;20733;-51
2022/09/13 11:10:16;;;;;;;2.58;2.20;;;24.90;99.90;;;;;;5038142;28;20167;-51
2022/09/13 11:12:55;;;;;;;2.90;2.30;;;24.80;99.90;;;;;;5038164;28;20240;-50
2022/09/13 11:15:28;;;;;;;3.42;2.08;;;24.90;99.90;;;;;;5038187;28;20167;-49
2022/09/13 11:18:19;;;;;;;4.30;2.13;;;25.10;99.90;;;;;;5037840;28;20225;-51
2022/09/13 11:21:05;;;;;;;4.20;2.10;;;25.30;99.90;;;;;;5037970;28;20170;-51
2022/09/13 11:23:43;;;;;;;3.00;2.10;;;25.30;99.90;;;;;;5037909;28;20169;-51
2022/09/13 11:26:27;;;;;;;3.30;2.28;;;25.10;99.90;;;;;;5038388;28;20569;-51
2022/09/13 11:29:12;;;;;;;5.05;2.60;;;25.20;99.90;;;;;;5037965;28;20229;-50
2022/09/13 11:32:13;;;;;;;5.30;2.75;;;25.00;99.90;;;;;;5038333;28;20193;-51
2022/09/13 11:35:09;;;;;;;4.80;2.25;;;24.90;99.90;;;;;;5037216;28;20186;-51
2022/09/13 11:37:44;;;;;;;4.53;2.60;;;25.00;99.90;;;;;;5036180;28;20761;-49
2022/09/13 11:40:42;;;;;;;4.00;2.20;;;25.40;99.90;;;;;;5037841;28;20590;-50
2022/09/13 11:43:11;;;;;;;4.57;2.10;;;25.80;99.90;;;;;;5036928;28;20673;-50
2022/09/13 11:45:50;;;;;;;2.17;1.92;;;26.00;99.90;;;;;;5038409;28;20198;-50
2022/09/13 11:48:32;;;;;;;4.55;2.30;;;26.00;99.90;;;;;;5037810;28;20159;-51
2022/09/13 11:51:19;;;;;;;2.80;1.80;;;26.00;99.90;;;;;;5037952;28;20357;-51
2022/09/13 11:54:02;;;;;;;1.70;1.58;;;26.20;99.90;;;;;;5037796;28;20194;-51
2022/09/13 11:56:54;;;;;;;3.67;1.50;;;26.10;99.90;;;;;;5035610;28;20206;-51
2022/09/13 11:59:33;;;;;;;2.47;1.55;;;26.40;99.90;;;;;;5034683;28;20666;-51
2022/09/13 12:02:08;;;;;;;3.08;1.75;;;26.30;99.90;;;;;;5034738;28;20334;-49
2022/09/13 12:04:41;;;;;;;4.32;2.22;;;26.40;99.90;;;;;;5034866;28;20319;-50
2022/09/13 12:07:17;;;;;;;3.72;1.50;;;26.30;99.90;;;;;;5035026;28;20177;-51
2022/09/13 12:09:54;;;;;;;1.65;1.55;;;26.40;99.90;;;;;;5034354;28;20167;-51
2022/09/13 12:12:24;;;;;;;4.25;1.70;;;26.70;99.90;;;;;;5034394;28;20174;-50
2022/09/13 12:14:59;;;;;;;3.50;1.80;;;26.60;99.90;;;;;;5034587;28;20503;-48
2022/09/13 12:17:54;;;;;;;1.95;1.77;;;26.60;99.90;;;;;;5034019;28;20230;-51
2022/09/13 12:20:30;;;;;;;2.90;1.60;;;26.80;99.90;;;;;;5033915;28;20179;-51
2022/09/13 12:23:00;;;;;;;1.92;1.50;;;26.60;99.90;;;;;;5034018;28;20158;-49
2022/09/13 12:25:40;;;;;;;2.30;1.60;;;26.80;99.90;;;;;;5034117;28;20163;-51
2022/09/13 12:28:17;;;;;;;3.38;1.73;;;26.80;99.90;;;;;;5034279;28;20256;-49
2022/09/13 12:30:50;;;;;;;1.58;1.48;;;26.90;99.90;;;;;;5033887;28;20630;-48
2022/09/13 12:33:16;;;;;;;3.47;1.55;;;26.70;99.90;;;;;;5034215;28;20178;-49
2022/09/13 12:36:11;;;;;;;2.25;1.70;;;26.50;99.90;;;;;;5033907;28;20166;-51
2022/09/13 12:39:30;;;;;;;2.40;1.90;;;26.50;99.90;;;;;;5034225;28;20221;-48
2022/09/13 12:42:15;;;;;;;2.08;1.60;;;26.60;99.90;;;;;;5030951;28;20652;-48
2022/09/13 12:44:47;;;;;;;3.60;1.98;;;27.00;99.90;;;;;;5033985;28;20597;-48
2022/09/13 12:47:34;;;;;;;3.03;1.95;;;27.00;99.90;;;;;;5033649;28;20162;-50
2022/09/13 12:50:24;;;;;;;4.25;1.83;;;26.90;99.90;;;;;;5033622;28;20635;-50
2022/09/13 12:53:17;;;;;;;3.40;1.92;;;26.80;99.90;;;;;;5033797;28;20253;-49
2022/09/13 12:56:05;;;;;;;3.10;1.83;;;26.70;99.90;;;;;;5033429;28;20163;-49
2022/09/13 12:58:47;;;;;;;2.40;1.60;;;27.00;99.90;;;;;;5033409;28;20178;-48
2022/09/13 13:01:29;;;;;;;3.03;1.88;;;26.60;99.90;;;;;;5033440;28;20197;-48
2022/09/13 13:04:23;;;;;;;9.98;1.80;;;26.70;99.90;;;;;;5033692;28;20178;-48
2022/09/13 13:06:52;;;;;;;4.70;2.05;;;26.80;99.90;;;;;;5032708;28;20228;-49
2022/09/13 13:09:23;;;;;;;2.47;1.80;;;26.90;99.90;;;;;;5033229;28;20167;-50
2022/09/13 13:11:50;;;;;;;1.90;1.80;;;26.80;99.90;;;;;;5033247;28;20158;-48
2022/09/13 13:14:45;;;;;;;3.83;1.77;;;26.60;99.90;;;;;;5033198;28;20167;-50
2022/09/13 13:17:33;;;;;;;5.18;1.98;;;26.80;99.90;;;;;;5032560;28;20309;-50
2022/09/13 13:19:58;;;;;;;5.07;1.98;;;26.70;99.90;;;;;;5033063;28;20163;-50